Woodmere, Ohio
Current Conditions -  °F | °C
As of 6:45 AM on Saturday 20 Dec 2014 (Local Time) from KCGF Reporting Station
Broken Clouds Broken Clouds  
Wind Chill: -4°   Ceiling: 1500
Heat Index: -1°   Visibility: 10mi
Dew Point: -5°   Wind: 5mph
Humidity: 75%   Direction: 230°SW
Pressure: 30.29"   Gusts: NA
Location:  41.4698°N, 81.5121°W
Report Text: KCGF 201145Z 23004KT 10SM SCT008 BKN015 M01/M05 A3029
Loading
Personal Weather Stations






























Interactive Weather Map New forecast layout! Learn more

10-Day Weather Forecast

Advertisements
Track Severe Weather on mobile